Avoch, United Kingdom
Current Conditions -  °F | °C
As of 4:20 PM on Friday 31 Oct 2014 (Local Time) from EGPE Reporting Station
Few Clouds Few Clouds  
Wind Chill: 63°   Ceiling: Unl
Heat Index: 63°   Visibility: 6mi
Dew Point: 54°   Wind: 17mph
Humidity: 72%   Direction: 160°SSE
Pressure: 29.56"   Gusts: NA
Location:  57.57°N, 4.17°W
Report Text: EGPE 311620Z 16015KT 9999 FEW025 17/12 Q1001
Loading
Personal Weather Stations






























Interactive Weather Map
Tropical Storm Tracking
New forecast layout! Learn more

10-Day Weather Forecast

Advertisements
Track Severe Weather on mobile